Time;durP1;ratioP1;P1;durP2;ratioP2;P2;SDS_P1;SDS_P2;PMS_P1;PMS_P2;Temp;Humidity;BMP_temperature;BMP_pressure;BME280_temperature;BME280_humidity;BME280_pressure;Samples;Min_cycle;Max_cycle;Signal;HPM_P1;HPM_P2
2021/01/24 00:00:30;;;;;;;;;2.75;2.00;;;;;;;;5095714;28;11492;-74
2021/01/24 00:03:26;;;;;;;;;2.00;1.00;;;;;;;;5119526;27;9556;-74
2021/01/24 00:05:52;;;;;;;;;;;;;;;;;;5097683;28;11622;-75
2021/01/24 00:08:18;;;;;;;;;1.75;1.00;;;;;;;;5096912;28;8886;-75
2021/01/24 00:10:44;;;;;;;;;3.33;2.00;;;;;;;;5096870;28;9008;-75
2021/01/24 00:13:10;;;;;;;;;;;;;;;;;;5098104;28;8847;-75
2021/01/24 00:15:36;;;;;;;;;2.33;0.67;;;;;;;;5098025;28;7540;-75
2021/01/24 00:18:44;;;;;;;;;1.00;1.00;;;;;;;;5117731;27;9529;-75
2021/01/24 00:21:09;;;;;;;;;;;;;;;;;;5098144;28;11495;-75
2021/01/24 00:26:08;;;;;;;;;;;;;;;;;;5121273;27;9508;-74
2021/01/24 00:29:06;;;;;;;;;;;;;;;;;;5101003;27;9145;-75
2021/01/24 00:31:32;;;;;;;;;;;;;;;;;;5100077;28;8840;-75
2021/01/24 00:35:41;;;;;;;;;;;;;;;;;;5120698;27;9512;-73
2021/01/24 00:38:09;;;;;;;;;1.67;1.00;;;;;;;;5117901;27;7980;-73
2021/01/24 00:43:15;;;;;;;;;2.00;1.00;;;;;;;;5119361;27;13482;-73
2021/01/24 00:45:41;;;;;;;;;2.33;1.67;;;;;;;;5097881;28;11579;-74
2021/01/24 00:48:07;;;;;;;;;2.00;1.00;;;;;;;;5096005;28;11480;-74
2021/01/24 00:50:33;;;;;;;;;5.00;2.00;;;;;;;;5099067;28;11606;-74
2021/01/24 00:52:59;;;;;;;;;3.00;1.00;;;;;;;;5095288;28;11514;-73
2021/01/24 00:57:52;;;;;;;;;2.00;1.00;;;;;;;;5120196;27;14224;-73
2021/01/24 01:00:19;;;;;;;;;1.00;1.00;;;;;;;;5097176;28;11590;-73
2021/01/24 01:02:45;;;;;;;;;1.00;1.00;;;;;;;;5097938;28;11605;-73
2021/01/24 01:05:11;;;;;;;;;2.33;2.00;;;;;;;;5098108;28;11560;-73
2021/01/24 01:07:37;;;;;;;;;;;;;;;;;;5099260;28;8826;-73
2021/01/24 01:10:03;;;;;;;;;2.33;1.33;;;;;;;;5099223;28;8966;-73
2021/01/24 01:17:25;;;;;;;;;5.00;4.00;;;;;;;;5116876;27;13419;-73
2021/01/24 01:19:51;;;;;;;;;2.00;1.50;;;;;;;;5097361;28;8978;-74
2021/01/24 01:22:16;;;;;;;;;3.00;2.00;;;;;;;;5097473;28;12231;-73
2021/01/24 01:24:42;;;;;;;;;2.75;1.50;;;;;;;;5098480;28;8993;-73
2021/01/24 01:31:59;;;;;;;;;2.00;0.00;;;;;;;;5120073;27;13206;-73
2021/01/24 01:36:51;;;;;;;;;2.50;2.00;;;;;;;;5099541;27;13451;-73
2021/01/24 01:44:07;;;;;;;;;1.00;0.00;;;;;;;;5119824;27;13446;-73
2021/01/24 01:46:33;;;;;;;;;2.75;1.00;;;;;;;;5099613;28;11634;-73
2021/01/24 01:51:24;;;;;;;;;2.00;1.50;;;;;;;;5119733;27;13423;-72
2021/01/24 01:53:53;;;;;;;;;4.50;2.00;;;;;;;;5097013;28;11600;-73
2021/01/24 01:56:19;;;;;;;;;1.00;1.00;;;;;;;;5098430;28;11692;-73
2021/01/24 01:58:44;;;;;;;;;2.25;1.00;;;;;;;;5097735;28;11486;-73
2021/01/24 02:01:13;;;;;;;;;2.00;1.50;;;;;;;;5097120;28;8843;-73
2021/01/24 02:03:45;;;;;;;;;2.00;0.75;;;;;;;;5098589;28;8848;-74
2021/01/24 02:06:15;;;;;;;;;2.75;0.25;;;;;;;;5097139;28;11642;-72
2021/01/24 02:08:45;;;;;;;;;0.00;0.00;;;;;;;;5097979;28;11497;-73
2021/01/24 02:11:14;;;;;;;;;1.75;0.75;;;;;;;;5096913;28;12245;-73
2021/01/24 02:13:48;;;;;;;;;3.00;1.00;;;;;;;;5098186;28;12291;-73
2021/01/24 02:16:15;;;;;;;;;3.00;2.00;;;;;;;;5097108;28;11623;-73
2021/01/24 02:18:43;;;;;;;;;3.25;1.75;;;;;;;;5097803;28;11506;-73
2021/01/24 02:21:12;;;;;;;;;2.25;1.00;;;;;;;;5096667;28;11664;-72
2021/01/24 02:23:40;;;;;;;;;3.00;2.00;;;;;;;;5098201;28;11504;-72
2021/01/24 02:26:10;;;;;;;;;1.00;1.00;;;;;;;;5096069;28;11473;-72
2021/01/24 02:28:44;;;;;;;;;1.50;1.50;;;;;;;;5098354;28;11514;-73
2021/01/24 02:31:11;;;;;;;;;6.00;2.00;;;;;;;;5096486;28;11595;-73
2021/01/24 02:33:38;;;;;;;;;6.00;1.75;;;;;;;;5098223;28;11569;-72
2021/01/24 02:36:05;;;;;;;;;1.75;1.00;;;;;;;;5095728;28;11616;-72
2021/01/24 02:38:32;;;;;;;;;5.50;1.25;;;;;;;;5098725;28;11602;-74
2021/01/24 02:40:59;;;;;;;;;1.75;1.75;;;;;;;;5095450;28;11610;-73
2021/01/24 02:43:26;;;;;;;;;0.00;0.00;;;;;;;;5098480;28;11785;-73
2021/01/24 02:45:52;;;;;;;;;0.50;0.50;;;;;;;;5095649;28;11496;-72
2021/01/24 02:48:19;;;;;;;;;2.75;1.00;;;;;;;;5097434;28;11611;-75
2021/01/24 02:50:46;;;;;;;;;4.00;3.00;;;;;;;;5096336;28;11617;-73
2021/01/24 02:53:13;;;;;;;;;2.00;1.00;;;;;;;;5096289;28;11641;-73
2021/01/24 02:55:39;;;;;;;;;1.50;0.25;;;;;;;;5097925;28;11588;-73
2021/01/24 02:58:05;;;;;;;;;2.50;1.00;;;;;;;;5095029;28;11630;-73
2021/01/24 03:00:31;;;;;;;;;2.50;2.00;;;;;;;;5097841;28;11591;-74
2021/01/24 03:02:57;;;;;;;;;2.00;1.50;;;;;;;;5077231;28;9701;-73
2021/01/24 03:05:24;;;;;;;;;5.50;2.00;;;;;;;;5084077;28;11617;-74
2021/01/24 03:07:51;;;;;;;;;2.25;1.00;;;;;;;;5082171;28;11618;-73
2021/01/24 03:10:17;;;;;;;;;3.00;0.33;;;;;;;;5083133;28;11504;-73
2021/01/24 03:12:48;;;;;;;;;2.00;1.00;;;;;;;;5082904;28;11584;-73
2021/01/24 03:15:15;;;;;;;;;1.50;1.00;;;;;;;;5082883;28;11630;-73
2021/01/24 03:17:42;;;;;;;;;1.50;1.00;;;;;;;;5083314;28;11612;-73
2021/01/24 03:20:08;;;;;;;;;3.50;1.00;;;;;;;;5081695;28;11629;-72
2021/01/24 03:22:35;;;;;;;;;2.25;1.50;;;;;;;;5083932;28;11457;-73
2021/01/24 03:25:02;;;;;;;;;1.25;0.00;;;;;;;;5080978;28;11631;-73
2021/01/24 03:27:29;;;;;;;;;10.00;1.50;;;;;;;;5084489;28;11589;-74
2021/01/24 03:29:55;;;;;;;;;2.00;2.00;;;;;;;;5081043;28;11526;-72
2021/01/24 03:32:21;;;;;;;;;2.75;1.00;;;;;;;;5083554;28;11499;-73
2021/01/24 03:34:47;;;;;;;;;3.25;1.00;;;;;;;;5081925;28;8932;-73
2021/01/24 03:37:12;;;;;;;;;6.50;1.00;;;;;;;;5082542;28;8954;-73
2021/01/24 03:39:39;;;;;;;;;1.25;1.25;;;;;;;;5083024;28;8850;-73
2021/01/24 03:42:05;;;;;;;;;2.00;2.00;;;;;;;;5081101;28;8982;-73
2021/01/24 03:44:31;;;;;;;;;3.25;2.00;;;;;;;;5084018;28;11487;-73
2021/01/24 03:46:57;;;;;;;;;1.00;1.00;;;;;;;;5080391;28;8850;-74
2021/01/24 03:49:23;;;;;;;;;3.00;1.75;;;;;;;;5083174;28;8874;-73
2021/01/24 03:51:49;;;;;;;;;3.00;1.25;;;;;;;;5081322;28;8863;-73
2021/01/24 03:54:15;;;;;;;;;1.00;0.75;;;;;;;;5082413;28;8875;-73
2021/01/24 03:56:41;;;;;;;;;3.25;2.00;;;;;;;;5082386;28;8931;-73
2021/01/24 03:59:07;;;;;;;;;0.00;0.00;;;;;;;;5081390;28;8945;-73
2021/01/24 04:01:33;;;;;;;;;2.25;1.00;;;;;;;;5083213;28;11619;-73
2021/01/24 04:03:59;;;;;;;;;2.00;0.00;;;;;;;;5080036;28;8845;-73
2021/01/24 04:06:25;;;;;;;;;3.25;1.00;;;;;;;;5076323;28;11617;-73
2021/01/24 04:08:51;;;;;;;;;2.25;0.25;;;;;;;;5083297;28;8832;-73
2021/01/24 04:11:17;;;;;;;;;2.00;0.00;;;;;;;;5080817;28;8836;-73
2021/01/24 04:13:44;;;;;;;;;0.00;0.00;;;;;;;;5080908;28;8918;-73
2021/01/24 04:16:10;;;;;;;;;0.00;0.00;;;;;;;;5081849;28;8947;-73
2021/01/24 04:18:36;;;;;;;;;2.00;0.75;;;;;;;;5080844;28;11508;-73
2021/01/24 04:21:03;;;;;;;;;0.25;0.25;;;;;;;;5082748;28;11692;-72
2021/01/24 04:23:28;;;;;;;;;0.00;0.00;;;;;;;;5079725;28;11609;-72
2021/01/24 04:25:54;;;;;;;;;1.00;0.00;;;;;;;;5075907;28;11629;-73
2021/01/24 04:28:20;;;;;;;;;0.00;0.00;;;;;;;;5082497;28;8955;-73
2021/01/24 04:30:47;;;;;;;;;1.00;1.00;;;;;;;;5080716;28;11553;-73
2021/01/24 04:33:15;;;;;;;;;2.75;0.00;;;;;;;;5081584;28;8835;-73
2021/01/24 04:35:41;;;;;;;;;2.00;0.00;;;;;;;;5081357;28;11598;-72
2021/01/24 04:38:07;;;;;;;;;0.00;0.00;;;;;;;;5080503;28;11489;-72
2021/01/24 04:40:33;;;;;;;;;0.00;0.00;;;;;;;;5082964;28;8832;-72
2021/01/24 04:42:59;;;;;;;;;1.00;0.00;;;;;;;;5079249;28;8967;-72
2021/01/24 04:45:25;;;;;;;;;1.00;0.00;;;;;;;;5083339;28;8820;-73
2021/01/24 04:47:52;;;;;;;;;1.00;0.00;;;;;;;;5080167;28;8967;-74
2021/01/24 04:50:18;;;;;;;;;0.00;0.00;;;;;;;;5081501;28;11485;-73
2021/01/24 04:52:45;;;;;;;;;0.00;0.00;;;;;;;;5080685;28;11468;-73
2021/01/24 04:55:11;;;;;;;;;0.00;0.00;;;;;;;;5080580;28;11612;-73
2021/01/24 04:57:37;;;;;;;;;0.00;0.00;;;;;;;;5081416;28;11469;-73
2021/01/24 05:00:04;;;;;;;;;0.00;0.00;;;;;;;;5079509;28;11471;-73
2021/01/24 05:02:30;;;;;;;;;0.00;0.00;;;;;;;;5082702;28;9714;-73
2021/01/24 05:04:57;;;;;;;;;0.00;0.00;;;;;;;;5079038;28;11497;-73
2021/01/24 05:07:23;;;;;;;;;0.50;0.00;;;;;;;;5082601;28;8960;-73
2021/01/24 05:09:49;;;;;;;;;0.00;0.00;;;;;;;;5079633;28;11475;-73
2021/01/24 05:12:15;;;;;;;;;0.00;0.00;;;;;;;;5081100;28;8858;-73
2021/01/24 05:14:41;;;;;;;;;0.00;0.00;;;;;;;;5081055;28;8970;-73
2021/01/24 05:17:07;;;;;;;;;0.00;0.00;;;;;;;;5079910;28;11483;-73
2021/01/24 05:19:33;;;;;;;;;0.00;0.00;;;;;;;;5081762;28;11590;-73
2021/01/24 05:22:00;;;;;;;;;0.00;0.00;;;;;;;;5078864;28;11483;-73
2021/01/24 05:24:29;;;;;;;;;0.00;0.00;;;;;;;;5082256;28;11585;-72
2021/01/24 05:26:55;;;;;;;;;0.00;0.00;;;;;;;;5074878;28;11618;-73
2021/01/24 05:29:21;;;;;;;;;0.00;0.00;;;;;;;;5081799;28;11470;-73
2021/01/24 05:31:48;;;;;;;;;0.00;0.00;;;;;;;;5079538;28;8885;-73
2021/01/24 05:34:16;;;;;;;;;0.00;0.00;;;;;;;;5080781;28;11610;-73
2021/01/24 05:36:45;;;;;;;;;0.75;0.00;;;;;;;;5080169;28;11621;-73
2021/01/24 05:39:11;;;;;;;;;0.25;0.25;;;;;;;;5080232;28;11606;-73
2021/01/24 05:41:37;;;;;;;;;1.00;1.00;;;;;;;;5080636;28;11471;-73
2021/01/24 05:44:10;;;;;;;;;2.00;0.00;;;;;;;;5079309;28;11624;-72
2021/01/24 05:46:36;;;;;;;;;1.00;0.00;;;;;;;;5080979;28;8843;-72
2021/01/24 05:49:02;;;;;;;;;0.00;0.00;;;;;;;;5078669;28;11475;-73
2021/01/24 05:51:29;;;;;;;;;2.00;0.00;;;;;;;;5081975;28;8860;-73
2021/01/24 05:53:56;;;;;;;;;0.00;0.00;;;;;;;;5078682;28;8900;-73
2021/01/24 05:56:23;;;;;;;;;0.50;0.00;;;;;;;;5081923;28;11584;-73
2021/01/24 05:58:53;;;;;;;;;0.00;0.00;;;;;;;;5079049;28;12306;-73
2021/01/24 06:01:19;;;;;;;;;1.00;0.00;;;;;;;;5081051;28;11460;-73
2021/01/24 06:03:46;;;;;;;;;0.00;0.00;;;;;;;;5079446;28;11573;-73
2021/01/24 06:06:12;;;;;;;;;0.00;0.00;;;;;;;;5080165;28;11615;-73
2021/01/24 06:08:39;;;;;;;;;1.00;0.00;;;;;;;;5080232;28;11595;-73
2021/01/24 06:11:06;;;;;;;;;0.00;0.00;;;;;;;;5079328;28;9068;-74
2021/01/24 06:13:34;;;;;;;;;0.00;0.00;;;;;;;;5080865;28;11583;-74
2021/01/24 06:16:09;;;;;;;;;2.00;0.00;;;;;;;;5078614;28;11608;-73
2021/01/24 06:18:37;;;;;;;;;0.00;0.00;;;;;;;;5080958;28;11451;-73
2021/01/24 06:21:04;;;;;;;;;1.00;1.00;;;;;;;;5078819;28;12371;-73
2021/01/24 06:23:33;;;;;;;;;0.00;0.00;;;;;;;;5081073;28;11553;-73
2021/01/24 06:26:01;;;;;;;;;0.00;0.00;;;;;;;;5078453;28;11478;-73
2021/01/24 06:28:28;;;;;;;;;0.00;0.00;;;;;;;;5081611;28;11698;-73
2021/01/24 06:30:55;;;;;;;;;0.75;0.00;;;;;;;;5078240;28;11590;-73
2021/01/24 06:33:22;;;;;;;;;0.00;0.00;;;;;;;;5081584;28;11586;-73
2021/01/24 06:35:49;;;;;;;;;1.00;0.00;;;;;;;;5078590;28;12281;-73
2021/01/24 06:38:36;;;;;;;;;1.25;0.00;;;;;;;;5084200;28;11532;-74
2021/01/24 06:41:02;;;;;;;;;0.00;0.00;;;;;;;;5076129;28;11591;-74
2021/01/24 06:43:37;;;;;;;;;1.00;0.00;;;;;;;;5085261;28;11635;-73
2021/01/24 06:46:04;;;;;;;;;0.00;0.00;;;;;;;;5082433;28;11500;-72
2021/01/24 06:48:40;;;;;;;;;0.75;0.00;;;;;;;;5084873;28;11663;-72
2021/01/24 06:51:30;;;;;;;;;0.00;0.00;;;;;;;;5082343;28;11601;-72
2021/01/24 06:53:56;;;;;;;;;0.00;0.00;;;;;;;;5077850;28;12304;-72
2021/01/24 06:56:22;;;;;;;;;0.00;0.00;;;;;;;;5077671;28;11471;-72
2021/01/24 06:58:48;;;;;;;;;0.00;0.00;;;;;;;;5084570;28;8925;-73
2021/01/24 07:01:22;;;;;;;;;0.00;0.00;;;;;;;;5082456;28;9546;-72
2021/01/24 07:03:48;;;;;;;;;0.00;0.00;;;;;;;;5084374;28;11578;-72
2021/01/24 07:06:33;;;;;;;;;0.75;0.00;;;;;;;;5082039;28;11565;-73
2021/01/24 07:08:59;;;;;;;;;0.00;0.00;;;;;;;;5078303;28;11613;-73
2021/01/24 07:11:44;;;;;;;;;0.00;0.00;;;;;;;;5084633;28;11471;-73
2021/01/24 07:14:41;;;;;;;;;0.00;0.00;;;;;;;;5081416;28;11568;-73
2021/01/24 07:17:09;;;;;;;;;1.00;0.00;;;;;;;;5080467;28;11549;-73
2021/01/24 07:19:40;;;;;;;;;0.00;0.00;;;;;;;;5083498;28;11608;-74
2021/01/24 07:22:06;;;;;;;;;0.00;0.00;;;;;;;;5082379;28;11469;-73
2021/01/24 07:24:32;;;;;;;;;0.00;0.00;;;;;;;;5083633;28;11573;-73
2021/01/24 07:26:59;;;;;;;;;0.00;0.00;;;;;;;;5081112;28;11592;-73
2021/01/24 07:29:25;;;;;;;;;0.00;0.00;;;;;;;;5084586;28;12212;-73
2021/01/24 07:31:51;;;;;;;;;0.00;0.00;;;;;;;;5076756;28;11469;-73
2021/01/24 07:34:20;;;;;;;;;1.50;0.00;;;;;;;;5083757;28;8951;-73
2021/01/24 07:36:47;;;;;;;;;0.00;0.00;;;;;;;;5081351;28;11685;-74
2021/01/24 07:39:13;;;;;;;;;0.25;0.00;;;;;;;;5082860;28;11599;-74
2021/01/24 07:41:38;;;;;;;;;0.75;0.00;;;;;;;;5082414;28;12355;-72
2021/01/24 07:44:05;;;;;;;;;0.75;0.00;;;;;;;;5081801;28;8852;-71
2021/01/24 07:46:30;;;;;;;;;1.00;0.00;;;;;;;;5083627;28;8959;-71
2021/01/24 07:48:56;;;;;;;;;0.75;0.00;;;;;;;;5080508;28;11559;-71
2021/01/24 07:51:23;;;;;;;;;0.00;0.00;;;;;;;;5084064;28;8832;-71
2021/01/24 07:53:50;;;;;;;;;0.00;0.00;;;;;;;;5080760;28;8991;-72
2021/01/24 07:56:16;;;;;;;;;0.00;0.00;;;;;;;;5083158;28;11634;-72
2021/01/24 07:58:42;;;;;;;;;0.00;0.00;;;;;;;;5078319;28;11453;-70
2021/01/24 08:01:08;;;;;;;;;0.00;0.00;;;;;;;;5007606;28;10372;-71
2021/01/24 08:03:34;;;;;;;;;0.00;0.00;;;;;;;;5051802;28;11600;-70
2021/01/24 08:06:05;;;;;;;;;0.00;0.00;;;;;;;;5043302;28;11609;-71
2021/01/24 08:08:32;;;;;;;;;0.00;0.00;;;;;;;;5050658;28;11614;-71
2021/01/24 08:10:58;;;;;;;;;0.00;0.00;;;;;;;;5051799;28;11481;-70
2021/01/24 08:13:24;;;;;;;;;0.00;0.00;;;;;;;;5051680;28;11657;-70
2021/01/24 08:15:51;;;;;;;;;0.00;0.00;;;;;;;;5052059;28;8943;-70
2021/01/24 08:18:17;;;;;;;;;0.00;0.00;;;;;;;;5051641;28;8840;-70
2021/01/24 08:20:43;;;;;;;;;0.00;0.00;;;;;;;;5044093;28;11516;-68
2021/01/24 08:23:09;;;;;;;;;0.00;0.00;;;;;;;;5049744;28;11498;-69
2021/01/24 08:25:37;;;;;;;;;0.00;0.00;;;;;;;;5041004;28;8929;-69
2021/01/24 08:28:03;;;;;;;;;0.00;0.00;;;;;;;;5047320;28;8859;-68
2021/01/24 08:30:29;;;;;;;;;0.00;0.00;;;;;;;;5050209;28;11486;-69
2021/01/24 08:32:55;;;;;;;;;0.00;0.00;;;;;;;;5049888;28;11524;-69
2021/01/24 08:35:21;;;;;;;;;2.25;1.25;;;;;;;;5049971;28;8849;-69
2021/01/24 08:37:47;;;;;;;;;0.00;0.00;;;;;;;;5050514;28;8845;-69
2021/01/24 08:40:13;;;;;;;;;0.00;0.00;;;;;;;;5039956;28;9031;-69
2021/01/24 08:42:46;;;;;;;;;0.00;0.00;;;;;;;;5033320;28;8969;-68
2021/01/24 08:45:17;;;;;;;;;0.00;0.00;;;;;;;;5043426;28;12270;-69
2021/01/24 08:47:49;;;;;;;;;0.00;0.00;;;;;;;;5049767;28;11752;-70
2021/01/24 08:50:15;;;;;;;;;0.00;0.00;;;;;;;;5048490;28;11640;-70
2021/01/24 08:52:41;;;;;;;;;0.00;0.00;;;;;;;;5050019;28;11609;-71
2021/01/24 08:55:07;;;;;;;;;1.00;0.00;;;;;;;;5049183;28;8857;-74
2021/01/24 08:57:34;;;;;;;;;0.00;0.00;;;;;;;;5049949;28;11497;-74
2021/01/24 09:00:01;;;;;;;;;0.00;0.00;;;;;;;;5048703;28;11477;-74
2021/01/24 09:02:28;;;;;;;;;0.00;0.00;;;;;;;;5049680;28;11625;-73
2021/01/24 09:04:54;;;;;;;;;0.00;0.00;;;;;;;;5049552;28;11634;-73
2021/01/24 09:07:20;;;;;;;;;1.00;0.00;;;;;;;;5045577;28;11566;-74
2021/01/24 09:09:47;;;;;;;;;0.25;0.25;;;;;;;;5049341;28;11575;-70
2021/01/24 09:12:14;;;;;;;;;6.50;4.00;;;;;;;;5047976;28;11490;-71
2021/01/24 09:14:41;;;;;;;;;0.50;0.25;;;;;;;;5048712;28;11604;-71
2021/01/24 09:17:09;;;;;;;;;0.00;0.00;;;;;;;;5037709;28;11624;-76
2021/01/24 09:19:35;;;;;;;;;1.00;0.00;;;;;;;;5048654;28;11621;-79
2021/01/24 09:22:01;;;;;;;;;0.00;0.00;;;;;;;;5049026;28;11505;-79
2021/01/24 09:24:27;;;;;;;;;2.00;2.00;;;;;;;;5047868;28;11506;-81
2021/01/24 09:26:53;;;;;;;;;0.00;0.00;;;;;;;;5049197;28;11768;-76
2021/01/24 09:29:19;;;;;;;;;0.25;0.25;;;;;;;;5048504;28;11500;-72
2021/01/24 09:31:45;;;;;;;;;1.25;1.25;;;;;;;;5048581;28;11631;-75
2021/01/24 09:34:12;;;;;;;;;1.75;1.75;;;;;;;;5048588;28;8882;-74
2021/01/24 09:36:38;;;;;;;;;2.00;2.00;;;;;;;;5049207;28;8952;-75
2021/01/24 09:39:04;;;;;;;;;4.00;2.00;;;;;;;;5048586;28;12272;-71
2021/01/24 09:41:30;;;;;;;;;5.50;3.00;;;;;;;;5047057;28;8952;-74
2021/01/24 09:43:56;;;;;;;;;3.25;2.00;;;;;;;;5048109;28;11501;-76
2021/01/24 09:46:22;;;;;;;;;4.50;3.00;;;;;;;;5047941;28;8842;-74
2021/01/24 09:48:48;;;;;;;;;1.25;1.25;;;;;;;;5048220;28;11615;-74
2021/01/24 09:51:15;;;;;;;;;3.25;2.25;;;;;;;;5044805;28;8881;-77
2021/01/24 09:53:41;;;;;;;;;4.50;3.00;;;;;;;;5045975;28;8859;-75
2021/01/24 09:56:07;;;;;;;;;1.00;1.00;;;;;;;;5045092;28;11506;-76
2021/01/24 09:58:33;;;;;;;;;1.25;1.25;;;;;;;;5047878;28;8837;-76
2021/01/24 10:01:00;;;;;;;;;2.50;1.50;;;;;;;;5047360;28;11599;-76
2021/01/24 10:03:26;;;;;;;;;1.50;1.50;;;;;;;;5048520;28;11633;-76
2021/01/24 10:05:52;;;;;;;;;1.00;1.00;;;;;;;;5048474;28;11514;-77
2021/01/24 10:08:19;;;;;;;;;1.00;1.00;;;;;;;;5047532;28;11520;-79
2021/01/24 10:10:46;;;;;;;;;2.00;0.00;;;;;;;;5049267;28;11592;-77
2021/01/24 10:13:12;;;;;;;;;0.00;0.00;;;;;;;;5052254;28;11546;-77
2021/01/24 10:15:38;;;;;;;;;0.00;0.00;;;;;;;;5053705;28;11509;-78
2021/01/24 10:18:04;;;;;;;;;0.00;0.00;;;;;;;;5052098;28;12313;-77
2021/01/24 10:20:30;;;;;;;;;2.25;2.00;;;;;;;;5053044;28;11601;-77
2021/01/24 10:22:56;;;;;;;;;1.75;1.75;;;;;;;;5051684;28;11525;-78
2021/01/24 10:25:23;;;;;;;;;0.00;0.00;;;;;;;;5053019;28;8841;-75
2021/01/24 10:27:49;;;;;;;;;1.00;0.00;;;;;;;;5044487;28;8956;-72
2021/01/24 10:30:16;;;;;;;;;0.00;0.00;;;;;;;;5051260;28;11556;-73
2021/01/24 10:32:42;;;;;;;;;0.00;0.00;;;;;;;;5052509;28;8976;-74
2021/01/24 10:35:08;;;;;;;;;0.00;0.00;;;;;;;;5051245;28;11511;-77
2021/01/24 10:37:34;;;;;;;;;0.00;0.00;;;;;;;;5052614;28;8924;-78
2021/01/24 10:40:00;;;;;;;;;0.00;0.00;;;;;;;;5051518;28;11563;-77
2021/01/24 10:42:27;;;;;;;;;0.00;0.00;;;;;;;;5052263;28;11641;-76
2021/01/24 10:44:53;;;;;;;;;0.75;0.00;;;;;;;;5051990;28;11616;-75
2021/01/24 10:47:19;;;;;;;;;0.00;0.00;;;;;;;;5048736;28;11543;-76
2021/01/24 10:49:46;;;;;;;;;0.00;0.00;;;;;;;;5048424;28;8868;-74
2021/01/24 10:52:12;;;;;;;;;0.00;0.00;;;;;;;;5051344;28;8826;-75
2021/01/24 10:54:38;;;;;;;;;0.00;0.00;;;;;;;;5051645;28;11698;-77
2021/01/24 10:57:04;;;;;;;;;0.00;0.00;;;;;;;;5051579;28;8837;-74
2021/01/24 10:59:31;;;;;;;;;0.00;0.00;;;;;;;;5041821;28;8973;-75
2021/01/24 11:01:58;;;;;;;;;0.00;0.00;;;;;;;;5048279;28;11594;-75
2021/01/24 11:04:24;;;;;;;;;0.00;0.00;;;;;;;;5052019;28;11661;-73
2021/01/24 11:06:50;;;;;;;;;0.00;0.00;;;;;;;;5043611;28;11509;-74
2021/01/24 11:09:16;;;;;;;;;0.00;0.00;;;;;;;;5051148;28;8878;-75
2021/01/24 11:11:42;;;;;;;;;0.00;0.00;;;;;;;;5051756;28;8939;-75
2021/01/24 11:14:08;;;;;;;;;0.00;0.00;;;;;;;;5050923;28;8853;-72
2021/01/24 11:16:35;;;;;;;;;0.00;0.00;;;;;;;;5051462;28;8841;-75
2021/01/24 11:19:01;;;;;;;;;0.00;0.00;;;;;;;;5050048;28;9682;-74
2021/01/24 11:21:27;;;;;;;;;0.00;0.00;;;;;;;;5051294;28;12266;-72
2021/01/24 11:23:53;;;;;;;;;0.00;0.00;;;;;;;;5050955;28;11508;-73
2021/01/24 11:26:19;;;;;;;;;0.00;0.00;;;;;;;;5050659;28;8845;-75
2021/01/24 11:28:45;;;;;;;;;0.00;0.00;;;;;;;;5050848;28;8996;-72
2021/01/24 11:31:11;;;;;;;;;0.00;0.00;;;;;;;;5049236;28;8884;-74
2021/01/24 11:33:38;;;;;;;;;0.00;0.00;;;;;;;;5050983;28;8858;-79
2021/01/24 11:36:04;;;;;;;;;0.00;0.00;;;;;;;;5051513;28;8960;-72
2021/01/24 11:38:30;;;;;;;;;0.00;0.00;;;;;;;;5050331;28;11609;-73
2021/01/24 11:40:56;;;;;;;;;0.00;0.00;;;;;;;;5051349;28;11497;-73
2021/01/24 11:43:22;;;;;;;;;0.00;0.00;;;;;;;;5050073;28;11504;-75
2021/01/24 11:45:48;;;;;;;;;0.00;0.00;;;;;;;;5051357;28;8875;-76
2021/01/24 11:48:14;;;;;;;;;0.00;0.00;;;;;;;;5051334;28;8826;-78
2021/01/24 11:50:40;;;;;;;;;0.25;0.00;;;;;;;;5049545;28;8975;-76
2021/01/24 11:53:06;;;;;;;;;0.00;0.00;;;;;;;;5050836;28;8876;-73
2021/01/24 11:55:32;;;;;;;;;0.75;0.75;;;;;;;;5050211;28;12351;-73
2021/01/24 11:57:58;;;;;;;;;0.25;0.25;;;;;;;;5049714;28;8854;-74
2021/01/24 12:00:24;;;;;;;;;0.50;0.00;;;;;;;;5049448;28;8990;-75
2021/01/24 12:02:50;;;;;;;;;0.00;0.00;;;;;;;;5050911;28;8846;-73
2021/01/24 12:05:16;;;;;;;;;1.00;1.00;;;;;;;;5042773;28;9544;-73
2021/01/24 12:07:43;;;;;;;;;2.00;2.00;;;;;;;;5050277;28;8918;-73
2021/01/24 12:10:10;;;;;;;;;2.00;2.00;;;;;;;;5049789;28;11613;-73
2021/01/24 12:12:36;;;;;;;;;0.00;0.00;;;;;;;;5050186;28;11549;-81
2021/01/24 12:15:02;;;;;;;;;0.00;0.00;;;;;;;;5050409;28;12353;-76
2021/01/24 12:17:28;;;;;;;;;0.00;0.00;;;;;;;;5049727;28;11626;-77
2021/01/24 12:19:54;;;;;;;;;0.00;0.00;;;;;;;;5049931;28;11630;-84
2021/01/24 12:22:20;;;;;;;;;0.00;0.00;;;;;;;;5044878;28;8845;-75
2021/01/24 12:24:47;;;;;;;;;0.00;0.00;;;;;;;;5050522;28;8837;-75
2021/01/24 12:27:13;;;;;;;;;0.00;0.00;;;;;;;;5049883;28;11587;-73
2021/01/24 12:29:40;;;;;;;;;0.00;0.00;;;;;;;;5046857;28;11591;-73
2021/01/24 12:32:06;;;;;;;;;0.00;0.00;;;;;;;;5048546;28;8876;-73
2021/01/24 12:34:32;;;;;;;;;0.00;0.00;;;;;;;;5048393;28;11628;-76
2021/01/24 12:36:58;;;;;;;;;0.00;0.00;;;;;;;;5049659;28;11475;-75
2021/01/24 12:39:24;;;;;;;;;1.00;0.00;;;;;;;;5048614;28;9917;-76
2021/01/24 12:41:51;;;;;;;;;0.00;0.00;;;;;;;;5049281;28;11684;-75
2021/01/24 12:44:17;;;;;;;;;0.00;0.00;;;;;;;;5049543;28;11526;-76
2021/01/24 12:46:43;;;;;;;;;1.00;0.00;;;;;;;;5037980;28;12377;-73
2021/01/24 12:49:09;;;;;;;;;1.00;0.00;;;;;;;;5031491;28;8898;-75
2021/01/24 12:51:35;;;;;;;;;1.50;0.00;;;;;;;;5027463;28;8922;-73
2021/01/24 12:54:01;;;;;;;;;0.00;0.00;;;;;;;;5046067;28;10937;-75
2021/01/24 12:56:27;;;;;;;;;0.00;0.00;;;;;;;;5048978;28;8861;-75
2021/01/24 12:58:54;;;;;;;;;0.00;0.00;;;;;;;;5049545;28;11721;-75
2021/01/24 13:01:20;;;;;;;;;0.00;0.00;;;;;;;;5049652;28;8885;-75
2021/01/24 13:03:46;;;;;;;;;0.00;0.00;;;;;;;;5041645;28;11495;-74
2021/01/24 13:06:11;;;;;;;;;0.00;0.00;;;;;;;;5049761;28;11577;-73
2021/01/24 13:08:37;;;;;;;;;0.00;0.00;;;;;;;;5048739;28;8869;-74
2021/01/24 13:11:03;;;;;;;;;0.75;0.00;;;;;;;;5049580;28;8949;-72
2021/01/24 13:13:29;;;;;;;;;0.00;0.00;;;;;;;;5048190;28;8867;-71
2021/01/24 13:15:56;;;;;;;;;0.00;0.00;;;;;;;;5049550;28;8829;-78
2021/01/24 13:18:22;;;;;;;;;0.00;0.00;;;;;;;;5050334;28;8979;-79
2021/01/24 13:20:48;;;;;;;;;0.00;0.00;;;;;;;;5049859;28;12266;-74
2021/01/24 13:23:14;;;;;;;;;1.00;1.00;;;;;;;;5049022;28;8880;-74
2021/01/24 13:25:40;;;;;;;;;0.00;0.00;;;;;;;;5049978;28;8925;-80
2021/01/24 13:28:06;;;;;;;;;0.75;0.00;;;;;;;;5050081;28;8866;-75
2021/01/24 13:30:32;;;;;;;;;1.00;0.00;;;;;;;;5050109;28;8861;-77
2021/01/24 13:32:59;;;;;;;;;0.00;0.00;;;;;;;;5050794;28;8861;-72
2021/01/24 13:35:25;;;;;;;;;0.75;0.00;;;;;;;;5041408;28;8841;-73
2021/01/24 13:37:51;;;;;;;;;1.00;0.00;;;;;;;;5049156;28;11632;-73
2021/01/24 13:40:17;;;;;;;;;1.00;1.00;;;;;;;;5049265;28;11603;-73
2021/01/24 13:42:43;;;;;;;;;0.00;0.00;;;;;;;;5047990;28;8841;-72
2021/01/24 13:45:10;;;;;;;;;0.00;0.00;;;;;;;;5048424;28;11557;-71
2021/01/24 13:47:35;;;;;;;;;2.00;1.00;;;;;;;;5050059;28;8892;-70
2021/01/24 13:50:03;;;;;;;;;1.75;1.75;;;;;;;;5049943;28;12306;-72
2021/01/24 13:52:28;;;;;;;;;2.50;1.75;;;;;;;;5050170;28;8948;-73
2021/01/24 13:54:54;;;;;;;;;1.00;1.00;;;;;;;;5049719;28;11592;-72
2021/01/24 13:57:20;;;;;;;;;2.75;2.75;;;;;;;;5049320;28;8913;-72
2021/01/24 13:59:46;;;;;;;;;4.25;2.50;;;;;;;;5047747;28;8868;-71
2021/01/24 14:02:12;;;;;;;;;2.00;2.00;;;;;;;;5047855;28;8996;-72
2021/01/24 14:04:38;;;;;;;;;3.00;3.00;;;;;;;;5047485;28;9561;-72
2021/01/24 14:07:05;;;;;;;;;2.50;2.50;;;;;;;;5047792;28;8960;-72
2021/01/24 14:09:31;;;;;;;;;2.00;2.00;;;;;;;;5047773;28;8875;-72
2021/01/24 14:11:57;;;;;;;;;2.25;2.25;;;;;;;;5047305;28;11522;-72
2021/01/24 14:14:23;;;;;;;;;3.50;2.75;;;;;;;;5048990;28;8841;-71
2021/01/24 14:16:48;;;;;;;;;3.00;3.00;;;;;;;;5049991;28;8850;-73
2021/01/24 14:19:14;;;;;;;;;2.25;2.00;;;;;;;;5049614;28;9654;-71
2021/01/24 14:21:40;;;;;;;;;4.00;2.00;;;;;;;;5049637;28;8849;-72
2021/01/24 14:24:08;;;;;;;;;3.00;3.00;;;;;;;;5049626;28;8825;-73
2021/01/24 14:26:34;;;;;;;;;3.25;3.25;;;;;;;;5049489;28;8953;-72
2021/01/24 14:29:00;;;;;;;;;2.75;2.75;;;;;;;;5049817;28;11628;-72
2021/01/24 14:31:26;;;;;;;;;2.75;2.75;;;;;;;;5049415;28;8842;-73
2021/01/24 14:33:53;;;;;;;;;3.25;3.00;;;;;;;;5049504;28;8853;-72
2021/01/24 14:36:18;;;;;;;;;3.00;2.00;;;;;;;;5048762;28;11625;-73
2021/01/24 14:38:44;;;;;;;;;6.50;5.25;;;;;;;;5048849;28;11509;-72
2021/01/24 14:41:11;;;;;;;;;4.00;3.00;;;;;;;;5048972;28;8833;-71
2021/01/24 14:43:37;;;;;;;;;3.00;3.00;;;;;;;;5049188;28;8942;-73
2021/01/24 14:46:03;;;;;;;;;4.75;3.00;;;;;;;;5049023;28;11527;-71
2021/01/24 14:48:29;;;;;;;;;4.50;2.75;;;;;;;;5048615;28;8872;-72
2021/01/24 14:50:55;;;;;;;;;3.25;2.50;;;;;;;;5048981;28;8972;-73
2021/01/24 14:53:21;;;;;;;;;2.50;2.50;;;;;;;;5049086;28;8855;-73
2021/01/24 14:55:47;;;;;;;;;3.00;3.00;;;;;;;;5049241;28;8842;-72
2021/01/24 14:58:14;;;;;;;;;3.00;2.00;;;;;;;;5051092;28;8869;-72
2021/01/24 15:00:40;;;;;;;;;4.25;2.50;;;;;;;;5052296;28;8837;-72
2021/01/24 15:03:06;;;;;;;;;5.75;2.00;;;;;;;;5052493;28;12211;-72
2021/01/24 15:05:32;;;;;;;;;3.75;3.00;;;;;;;;5052944;28;8834;-72
2021/01/24 15:07:58;;;;;;;;;1.25;1.25;;;;;;;;5052892;28;11672;-73
2021/01/24 15:10:24;;;;;;;;;2.50;2.00;;;;;;;;5052621;28;8851;-73
2021/01/24 15:12:50;;;;;;;;;2.00;2.00;;;;;;;;5052925;28;11493;-73
2021/01/24 15:15:17;;;;;;;;;3.25;2.00;;;;;;;;5052869;28;8857;-72
2021/01/24 15:17:43;;;;;;;;;6.75;3.00;;;;;;;;5044995;28;8952;-72